EFKE/KEM METAR and TAF weather

Enter ICAO airport designator
Station Type Date Time Source
EFKE METAR 2018/01/19 17:20 UTC NOAA

EFKE 191720Z AUTO 08003KT CAVOK M16/M18 Q1010


Station Type Date Time Source
EFKE Decoded METAR 2018/01/19 17:20 UTC NOAA

Kemi, Finland (EFKE) 65-47N 024-35E
Jan 19, 2018 - 12:20 PM EST / 2018.01.19 1720 UTC
Wind: from the E (080 degrees) at 3 MPH (3 KT):0
Visibility: greater than 7 mile(s):0
Temperature: 3 F (-16 C)
Dew Point: 0 F (-18 C)
Relative Humidity: 84%
Pressure (altimeter): 29.83 in. Hg (1010 hPa)
ob: EFKE 191720Z AUTO 08003KT CAVOK M16/M18 Q1010
cycle: 17

Station Type Date Time Source
EFKE TAF 2015/01/12 15:42 UTC NOAA

TAF EFKE 121433Z 1215/1312 03006KT CAVOK
BECMG 1300/1302 9999 BKN015
FM130400 07008KT 9999 SCT014 BKN018
TEMPO 1304/1312 7000 -SN


Example: see airport list